Terminal Aerodrome Forecast
Issued by NWS

Home | Current Version | Previous Version | Text Only | Print | Product List | Glossary On
Versions: 1 2 3 4 5 6 7 8 9 10 11 12 13 14 15 16 17 18 19 20 21 22 23 24 25 26 27
000
FTUS41 KOKX 051438 AAB
TAFTEB
TAF AMD
KTEB 051438Z 0515/0612 26010KT 5SM BR BKN020 BKN030
     FM051700 28010G16KT P6SM SCT030 BKN050
     FM052100 30009KT P6SM SCT250
     FM060200 32010KT P6SM SKC
     FM060600 34007KT P6SM SKC=

USA.gov is the U.S. government's official web portal to all federal, state and local government web resources and services.